Silia — WDG2034 — position and weather

sailwx.info

Track history (hours):
 
Tides and Currents Weather Stations Pressure Air Temp Water Temp Dewpoint Dewpoint Depression Visibility Wind Speed Wind Dir Waves Ship Positions

Silia

Owner: greger pacific marine, napa, CA. More information available from US FCC via Universal Licensing System and Coast Guard Vessel Documentation Center.

Last reported at 2017-Jun-12 23:33 UTC. Time now 2017-Jun-27 14:02 UTC.
Position N 38°04' W 122°13'.
Warning: this ship's position is 14 days out of date.

Length 17 m; draft 3 m.

Type: Tug. MMSI: 367511460.

Date/timePositionNaut miles runAvg speedWind from/ knotsBaromVisibWave heightAir tempDewpointWater temp
2017-Jun-12 23:33N 38°04' W 122°13'4 7.9
2017-Jun-12 23:05N 38°03' W 122°18'1 7.7
2017-Jun-12 22:59N 38°03' W 122°19'4 7.9
2017-Jun-12 22:29N 38°01' W 122°23'4 8.0
2017-Jun-12 21:57N 37°57' W 122°26'4 8.4
2017-Jun-12 21:30N 37°53' W 122°25'3 6.9
2017-Jun-12 21:01N 37°50' W 122°22'3 5.1
2017-Jun-12 20:30N 37°48' W 122°21'1 2.8
2017-Jun-12 20:00N 37°49' W 122°19'3 6.0
2017-Jun-12 19:30N 37°51' W 122°22'4 8.8
2017-Jun-12 19:00N 37°55' W 122°25'7 7.4
2017-Jun-12 18:05N 38°01' W 122°23'710.4
2017-Jun-12 17:27N 38°04' W 122°15'  
2017-Jun-06 05:58N 38°01' W 121°44'  
Track history (hours):
 
Tides and Currents Weather Stations Pressure Air Temp Water Temp Dewpoint Dewpoint Depression Visibility Wind Speed Wind Dir Waves Ship Positions

Silia

Owner: greger pacific marine, napa, CA. More information available from US FCC via Universal Licensing System and Coast Guard Vessel Documentation Center.

Last reported at 2017-Jun-12 23:33 UTC. Time now 2017-Jun-27 14:02 UTC.
Position N 38°04' W 122°13'.
Warning: this ship's position is 14 days out of date.

Length 17 m; draft 3 m.

Type: Tug. MMSI: 367511460.

Date/timePositionNaut miles runAvg speedWind from/ knotsBaromVisibWave heightAir tempDewpointWater temp
2017-Jun-12 23:33N 38°04' W 122°13'4 7.9
2017-Jun-12 23:05N 38°03' W 122°18'1 7.7
2017-Jun-12 22:59N 38°03' W 122°19'4 7.9
2017-Jun-12 22:29N 38°01' W 122°23'4 8.0
2017-Jun-12 21:57N 37°57' W 122°26'4 8.4
2017-Jun-12 21:30N 37°53' W 122°25'3 6.9
2017-Jun-12 21:01N 37°50' W 122°22'3 5.1
2017-Jun-12 20:30N 37°48' W 122°21'1 2.8
2017-Jun-12 20:00N 37°49' W 122°19'3 6.0
2017-Jun-12 19:30N 37°51' W 122°22'4 8.8
2017-Jun-12 19:00N 37°55' W 122°25'7 7.4
2017-Jun-12 18:05N 38°01' W 122°23'710.4
2017-Jun-12 17:27N 38°04' W 122°15'  
2017-Jun-06 05:58N 38°01' W 121°44'  

Dump ship's entire track history